Time;durP1;ratioP1;P1;durP2;ratioP2;P2;SDS_P1;SDS_P2;PMS_P1;PMS_P2;Temp;Humidity;BMP_temperature;BMP_pressure;BME280_temperature;BME280_humidity;BME280_pressure;Samples;Min_cycle;Max_cycle;Signal;HPM_P1;HPM_P2
2021/05/19 00:01:24;;;;;;;18.83;17.23;;;;;;;;;;5034623;28;20484;-72
2021/05/19 00:03:51;;;;;;;19.90;18.23;;;;;;;;;;5037919;28;20457;-73
2021/05/19 00:06:18;;;;;;;19.10;17.47;;;;;;;;;;5037583;28;20483;-74
2021/05/19 00:08:44;;;;;;;19.30;17.50;;;;;;;;;;5038249;28;20802;-74
2021/05/19 00:11:11;;;;;;;20.43;18.77;;;;;;;;;;5036385;28;20544;-75
2021/05/19 00:13:39;;;;;;;18.20;16.67;;;;;;;;;;5038714;28;20451;-77
2021/05/19 00:16:07;;;;;;;19.73;17.87;;;;;;;;;;5037203;28;20480;-74
2021/05/19 00:18:34;;;;;;;18.80;17.20;;;;;;;;;;5037061;28;20815;-75
2021/05/19 00:21:01;;;;;;;19.30;17.60;;;;;;;;;;5035328;28;20523;-70
2021/05/19 00:23:28;;;;;;;19.40;17.60;;;;;;;;;;5037824;28;20452;-74
2021/05/19 00:25:54;;;;;;;19.83;18.00;;;;;;;;;;5034905;28;20480;-72
2021/05/19 00:28:21;;;;;;;19.20;17.40;;;;;;;;;;5039158;28;20465;-76
2021/05/19 00:30:50;;;;;;;19.10;17.43;;;;;;;;;;5038819;28;20833;-73
2021/05/19 00:33:18;;;;;;;20.47;18.60;;;;;;;;;;5034555;28;20969;-74
2021/05/19 00:35:44;;;;;;;19.27;17.63;;;;;;;;;;5027543;28;20519;-71
2021/05/19 00:38:11;;;;;;;20.40;18.60;;;;;;;;;;5035964;28;20868;-77
2021/05/19 00:40:38;;;;;;;20.17;18.37;;;;;;;;;;5036495;28;20468;-74
2021/05/19 00:43:04;;;;;;;22.37;20.20;;;;;;;;;;5037503;28;20457;-71
2021/05/19 00:45:31;;;;;;;20.37;18.67;;;;;;;;;;5035107;28;20581;-76
2021/05/19 00:47:58;;;;;;;21.17;19.17;;;;;;;;;;5035531;28;20829;-72
2021/05/19 00:50:26;;;;;;;22.60;20.53;;;;;;;;;;5031840;28;20472;-76
2021/05/19 00:52:53;;;;;;;22.50;20.43;;;;;;;;;;5039252;28;20509;-74
2021/05/19 00:55:19;;;;;;;21.97;19.97;;;;;;;;;;5038333;28;20477;-75
2021/05/19 00:57:47;;;;;;;23.37;21.27;;;;;;;;;;5038022;28;20832;-72
2021/05/19 01:00:15;;;;;;;24.27;22.07;;;;;;;;;;5038605;28;20456;-74
2021/05/19 01:02:43;;;;;;;25.97;23.50;;;;;;;;;;5037191;28;20488;-73
2021/05/19 01:05:15;;;;;;;24.63;22.33;;;;;;;;;;5037471;28;20453;-77
2021/05/19 01:09:34;;;;;;;27.97;25.23;;;;;;;;;;5037761;28;20485;-71
2021/05/19 01:10:32;;;;;;;26.80;24.23;;;;;;;;;;5035246;28;20469;-75
2021/05/19 01:12:58;;;;;;;27.83;25.23;;;;;;;;;;5037439;28;20483;-76
2021/05/19 01:15:25;;;;;;;29.73;26.93;;;;;;;;;;5035996;28;20468;-74
2021/05/19 01:17:52;;;;;;;32.13;28.83;;;;;;;;;;5026972;28;20948;-72
2021/05/19 01:20:18;;;;;;;31.80;28.67;;;;;;;;;;5025184;28;20518;-77
2021/05/19 01:22:47;;;;;;;30.63;27.73;;;;;;;;;;5035184;28;20480;-73
2021/05/19 01:25:14;;;;;;;35.20;31.60;;;;;;;;;;5036202;28;20471;-72
2021/05/19 01:27:40;;;;;;;30.87;27.73;;;;;;;;;;5036620;28;20489;-73
2021/05/19 01:30:08;;;;;;;36.90;33.30;;;;;;;;;;5036325;28;20876;-75
2021/05/19 01:32:36;;;;;;;35.43;31.83;;;;;;;;;;5037178;28;20465;-74
2021/05/19 01:35:02;;;;;;;34.57;31.07;;;;;;;;;;5037212;28;20475;-74
2021/05/19 01:37:29;;;;;;;35.43;31.43;;;;;;;;;;5023968;28;20512;-76
2021/05/19 01:39:56;;;;;;;33.80;30.37;;;;;;;;;;5035745;28;20559;-71
2021/05/19 01:42:23;;;;;;;34.47;30.90;;;;;;;;;;5035684;28;20488;-75
2021/05/19 01:44:53;;;;;;;35.33;31.73;;;;;;;;;;5035586;28;20467;-81
2021/05/19 01:47:20;;;;;;;34.43;30.83;;;;;;;;;;5035522;28;20500;-74
2021/05/19 01:49:47;;;;;;;35.67;32.20;;;;;;;;;;5031618;28;20471;-78
2021/05/19 01:52:14;;;;;;;36.17;32.70;;;;;;;;;;5036086;28;20490;-74
2021/05/19 01:54:41;;;;;;;36.07;32.43;;;;;;;;;;5034586;28;20468;-77
2021/05/19 01:57:09;;;;;;;36.23;32.33;;;;;;;;;;5034632;28;20564;-71
2021/05/19 01:59:36;;;;;;;35.97;32.33;;;;;;;;;;5034413;28;20844;-73
2021/05/19 02:02:03;;;;;;;36.80;32.97;;;;;;;;;;5034818;28;20489;-74
2021/05/19 02:04:30;;;;;;;36.37;32.67;;;;;;;;;;5034828;28;20474;-74
2021/05/19 02:06:57;;;;;;;36.90;33.10;;;;;;;;;;5034566;28;20477;-81
2021/05/19 02:09:24;;;;;;;37.97;33.73;;;;;;;;;;5034666;28;20465;-75
2021/05/19 02:11:51;;;;;;;37.63;33.70;;;;;;;;;;5035054;28;20465;-77
2021/05/19 02:14:19;;;;;;;38.63;34.50;;;;;;;;;;5036955;28;20468;-74
2021/05/19 02:16:46;;;;;;;37.00;33.20;;;;;;;;;;5037192;28;20476;-76
2021/05/19 02:19:14;;;;;;;37.53;33.80;;;;;;;;;;5036104;28;20495;-74
2021/05/19 02:21:41;;;;;;;37.27;33.47;;;;;;;;;;5038788;28;20487;-79
2021/05/19 02:24:08;;;;;;;37.90;33.97;;;;;;;;;;5038782;28;20506;-80
2021/05/19 02:26:34;;;;;;;39.97;35.77;;;;;;;;;;5038721;28;20996;-77
2021/05/19 02:29:01;;;;;;;40.33;36.23;;;;;;;;;;5038008;28;20464;-77
2021/05/19 02:31:29;;;;;;;36.90;33.20;;;;;;;;;;5038837;28;20451;-79
2021/05/19 02:33:55;;;;;;;39.60;35.57;;;;;;;;;;5027754;28;20468;-78
2021/05/19 02:36:22;;;;;;;39.93;35.77;;;;;;;;;;5029655;28;20484;-77
2021/05/19 02:38:48;;;;;;;37.63;33.83;;;;;;;;;;5035764;28;20487;-74
2021/05/19 02:41:15;;;;;;;39.37;35.23;;;;;;;;;;5034652;28;20484;-78
2021/05/19 02:43:42;;;;;;;39.23;35.27;;;;;;;;;;5034054;28;21777;-75
2021/05/19 02:46:08;;;;;;;39.73;35.73;;;;;;;;;;5033674;28;20991;-75
2021/05/19 02:48:36;;;;;;;38.57;34.60;;;;;;;;;;5033103;28;20453;-74
2021/05/19 02:51:03;;;;;;;36.27;32.57;;;;;;;;;;5030853;28;20464;-78
2021/05/19 02:53:29;;;;;;;37.53;33.83;;;;;;;;;;5032717;28;20459;-73
2021/05/19 02:55:56;;;;;;;39.77;35.57;;;;;;;;;;5031091;28;20999;-79
2021/05/19 02:58:22;;;;;;;37.67;34.00;;;;;;;;;;5032220;28;20449;-78
2021/05/19 03:00:49;;;;;;;38.43;34.63;;;;;;;;;;5031207;28;20468;-74
2021/05/19 03:03:16;;;;;;;37.80;33.90;;;;;;;;;;5031381;28;20444;-75
2021/05/19 03:05:43;;;;;;;40.17;36.17;;;;;;;;;;5029774;28;20460;-74
2021/05/19 03:08:10;;;;;;;38.57;34.47;;;;;;;;;;5030752;28;20449;-73
2021/05/19 03:10:37;;;;;;;39.87;36.03;;;;;;;;;;5034252;28;20901;-74
2021/05/19 03:13:04;;;;;;;41.07;36.60;;;;;;;;;;5033833;28;20449;-78
2021/05/19 03:15:31;;;;;;;40.20;36.20;;;;;;;;;;5030970;28;20547;-76
2021/05/19 03:17:58;;;;;;;40.80;36.50;;;;;;;;;;5031617;28;20444;-73
2021/05/19 03:20:25;;;;;;;40.17;36.03;;;;;;;;;;5017892;28;20452;-76
2021/05/19 03:22:52;;;;;;;41.57;37.37;;;;;;;;;;5031667;28;20488;-79
2021/05/19 03:25:20;;;;;;;39.30;35.30;;;;;;;;;;5022477;28;20458;-76
2021/05/19 03:27:46;;;;;;;42.90;38.60;;;;;;;;;;5033530;28;20911;-74
2021/05/19 03:30:14;;;;;;;40.40;36.27;;;;;;;;;;5035169;28;20459;-76
2021/05/19 03:32:42;;;;;;;41.40;36.57;;;;;;;;;;5035409;28;20463;-75
2021/05/19 03:35:09;;;;;;;40.33;36.47;;;;;;;;;;5034075;28;20476;-70
2021/05/19 03:37:37;;;;;;;38.07;34.33;;;;;;;;;;5035300;28;20494;-77
2021/05/19 03:40:05;;;;;;;39.97;35.90;;;;;;;;;;5035807;28;20461;-72
2021/05/19 03:42:32;;;;;;;42.07;37.70;;;;;;;;;;5036008;28;20498;-73
2021/05/19 03:44:59;;;;;;;41.17;36.80;;;;;;;;;;5033344;28;20514;-76
2021/05/19 03:47:25;;;;;;;42.17;37.80;;;;;;;;;;5034226;28;20476;-73
2021/05/19 03:49:52;;;;;;;39.70;35.57;;;;;;;;;;5033035;28;20787;-73
2021/05/19 03:52:19;;;;;;;39.60;35.47;;;;;;;;;;5035034;28;20460;-75
2021/05/19 03:54:46;;;;;;;39.40;35.50;;;;;;;;;;5035903;28;20471;-73
2021/05/19 03:57:13;;;;;;;37.43;33.53;;;;;;;;;;5036907;28;20602;-74
2021/05/19 03:59:40;;;;;;;37.50;33.90;;;;;;;;;;5037991;28;20514;-74
2021/05/19 04:02:06;;;;;;;35.97;32.57;;;;;;;;;;5036377;28;20490;-74
2021/05/19 04:04:33;;;;;;;35.90;32.50;;;;;;;;;;5036992;28;20456;-76
2021/05/19 04:07:00;;;;;;;39.37;35.90;;;;;;;;;;5033102;28;20484;-71
2021/05/19 04:09:26;;;;;;;39.60;36.30;;;;;;;;;;5035847;28;20874;-72
2021/05/19 04:11:53;;;;;;;41.67;38.00;;;;;;;;;;5041502;28;20456;-73
2021/05/19 04:14:21;;;;;;;38.43;35.33;;;;;;;;;;5040636;28;20448;-72
2021/05/19 04:16:47;;;;;;;38.77;35.47;;;;;;;;;;5040453;28;20500;-73
2021/05/19 04:19:14;;;;;;;37.57;34.47;;;;;;;;;;5040879;28;20449;-73
2021/05/19 04:21:41;;;;;;;37.30;34.20;;;;;;;;;;5039314;28;20484;-74
2021/05/19 04:24:08;;;;;;;37.90;34.80;;;;;;;;;;5040176;28;20480;-73
2021/05/19 04:26:34;;;;;;;36.90;33.93;;;;;;;;;;5041281;28;20469;-73
2021/05/19 04:29:01;;;;;;;37.87;34.87;;;;;;;;;;5041077;28;20848;-73
2021/05/19 04:31:28;;;;;;;35.33;32.53;;;;;;;;;;5040176;28;20459;-73
2021/05/19 04:33:55;;;;;;;35.33;32.33;;;;;;;;;;5024196;28;20476;-71
2021/05/19 04:36:22;;;;;;;36.90;33.80;;;;;;;;;;5039884;28;20498;-72
2021/05/19 04:38:48;;;;;;;34.43;31.83;;;;;;;;;;5041384;28;20461;-72
2021/05/19 04:41:15;;;;;;;34.10;31.30;;;;;;;;;;5027550;28;20451;-73
2021/05/19 04:43:42;;;;;;;32.30;29.80;;;;;;;;;;5044148;28;20445;-71
2021/05/19 04:46:09;;;;;;;32.83;30.33;;;;;;;;;;5043913;28;20804;-72
2021/05/19 04:48:37;;;;;;;32.17;29.67;;;;;;;;;;5040345;28;20448;-74
2021/05/19 04:51:03;;;;;;;32.57;30.07;;;;;;;;;;5037155;28;20468;-73
2021/05/19 04:53:30;;;;;;;31.03;28.63;;;;;;;;;;5038482;28;20459;-74
2021/05/19 04:55:56;;;;;;;32.30;29.80;;;;;;;;;;5034465;28;21022;-73
2021/05/19 04:58:26;;;;;;;29.07;26.97;;;;;;;;;;5040169;28;20452;-75
2021/05/19 05:00:53;;;;;;;28.97;26.77;;;;;;;;;;5038139;28;20445;-76
2021/05/19 05:03:19;;;;;;;29.20;27.10;;;;;;;;;;5036703;28;20480;-76
2021/05/19 05:05:47;;;;;;;27.33;25.43;;;;;;;;;;5033979;28;20523;-76
2021/05/19 05:08:14;;;;;;;25.90;23.90;;;;;;;;;;5037511;28;20457;-81
2021/05/19 05:10:40;;;;;;;26.00;24.13;;;;;;;;;;5037329;28;20467;-72
2021/05/19 05:13:07;;;;;;;24.70;23.00;;;;;;;;;;5038120;28;20822;-75
2021/05/19 05:15:33;;;;;;;24.47;22.87;;;;;;;;;;5033708;28;20960;-73
2021/05/19 05:18:00;;;;;;;22.33;20.80;;;;;;;;;;5034937;28;20451;-73
2021/05/19 05:20:27;;;;;;;21.10;19.40;;;;;;;;;;5031560;28;20465;-72
2021/05/19 05:22:54;;;;;;;20.13;18.73;;;;;;;;;;5031533;28;20485;-71
2021/05/19 05:25:22;;;;;;;19.37;18.07;;;;;;;;;;5027809;28;20483;-71
2021/05/19 05:27:49;;;;;;;19.03;17.80;;;;;;;;;;5013864;28;20501;-74
2021/05/19 05:30:17;;;;;;;18.07;16.60;;;;;;;;;;5028484;28;20464;-68
2021/05/19 05:32:44;;;;;;;12.00;7.37;;;;;;;;;;5030940;28;20457;-69
2021/05/19 05:35:11;;;;;;;7.67;6.97;;;;;;;;;;5031305;28;20464;-73
2021/05/19 05:37:38;;;;;;;9.80;7.80;;;;;;;;;;5031238;28;20481;-73
2021/05/19 05:40:06;;;;;;;8.73;7.97;;;;;;;;;;5033535;28;20571;-72
2021/05/19 05:42:33;;;;;;;10.13;9.20;;;;;;;;;;5031846;28;20485;-73
2021/05/19 05:44:59;;;;;;;10.00;9.40;;;;;;;;;;5033282;28;20448;-73
2021/05/19 05:47:26;;;;;;;8.33;7.83;;;;;;;;;;5030142;28;20484;-73
2021/05/19 05:49:53;;;;;;;8.63;8.10;;;;;;;;;;5033152;28;20463;-73
2021/05/19 05:52:19;;;;;;;8.63;8.07;;;;;;;;;;5031785;28;20476;-73
2021/05/19 05:54:46;;;;;;;8.17;7.63;;;;;;;;;;5032760;28;20469;-73
2021/05/19 05:57:14;;;;;;;6.90;6.40;;;;;;;;;;5027327;28;20492;-73
2021/05/19 05:59:40;;;;;;;7.30;6.90;;;;;;;;;;5033092;28;20467;-73
2021/05/19 06:02:07;;;;;;;6.13;5.63;;;;;;;;;;5026212;28;20535;-73
2021/05/19 06:04:34;;;;;;;5.90;5.50;;;;;;;;;;5032964;28;20452;-73
2021/05/19 06:07:00;;;;;;;7.27;5.50;;;;;;;;;;5030333;28;20496;-73
2021/05/19 06:09:27;;;;;;;4.33;4.03;;;;;;;;;;5032847;28;20959;-73
2021/05/19 06:11:54;;;;;;;4.63;4.33;;;;;;;;;;5030888;28;20487;-73
2021/05/19 06:14:21;;;;;;;4.37;4.07;;;;;;;;;;5028362;28;20618;-73
2021/05/19 06:16:48;;;;;;;4.20;3.90;;;;;;;;;;5031937;28;20498;-73
2021/05/19 06:19:15;;;;;;;3.50;3.20;;;;;;;;;;5030445;28;20461;-73
2021/05/19 06:21:41;;;;;;;3.90;3.60;;;;;;;;;;5031913;28;20484;-73
2021/05/19 06:24:08;;;;;;;3.63;3.43;;;;;;;;;;5032381;28;20467;-73
2021/05/19 06:26:35;;;;;;;3.50;3.20;;;;;;;;;;5031685;28;20473;-73
2021/05/19 06:29:01;;;;;;;3.87;3.57;;;;;;;;;;5032797;28;20900;-73
2021/05/19 06:31:29;;;;;;;3.30;3.00;;;;;;;;;;5033000;28;20454;-69
2021/05/19 06:33:55;;;;;;;7.33;2.90;;;;;;;;;;5028376;28;20452;-70
2021/05/19 06:36:22;;;;;;;3.83;2.53;;;;;;;;;;5020924;28;20464;-69
2021/05/19 06:38:49;;;;;;;4.63;2.67;;;;;;;;;;5023757;28;20459;-70
2021/05/19 06:41:16;;;;;;;3.97;3.67;;;;;;;;;;5023758;28;20474;-70
2021/05/19 06:43:42;;;;;;;5.10;3.30;;;;;;;;;;5032556;28;20512;-70
2021/05/19 06:46:09;;;;;;;3.83;3.03;;;;;;;;;;5032596;28;20476;-70
2021/05/19 06:48:37;;;;;;;5.00;3.50;;;;;;;;;;5023367;28;20454;-71
2021/05/19 06:51:04;;;;;;;4.30;2.70;;;;;;;;;;5022585;28;20452;-70
2021/05/19 06:53:30;;;;;;;3.60;2.70;;;;;;;;;;5032088;28;20441;-70
2021/05/19 06:55:57;;;;;;;5.13;3.17;;;;;;;;;;5031809;28;20886;-70
2021/05/19 06:58:24;;;;;;;2.70;2.47;;;;;;;;;;5032696;28;20453;-71
2021/05/19 07:00:53;;;;;;;2.50;2.30;;;;;;;;;;5032356;28;20455;-70
2021/05/19 07:03:20;;;;;;;3.27;2.97;;;;;;;;;;5031203;28;20483;-70
2021/05/19 07:05:47;;;;;;;6.20;3.50;;;;;;;;;;5030809;28;20467;-70
2021/05/19 07:08:14;;;;;;;7.00;2.80;;;;;;;;;;5031157;28;20456;-70
2021/05/19 07:10:40;;;;;;;7.30;2.87;;;;;;;;;;5030764;28;20452;-71
2021/05/19 07:13:07;;;;;;;5.07;2.93;;;;;;;;;;5031336;28;20811;-71
2021/05/19 07:15:37;;;;;;;3.50;2.27;;;;;;;;;;5031178;28;20448;-72
2021/05/19 07:18:05;;;;;;;2.50;2.30;;;;;;;;;;5022680;28;20514;-72
2021/05/19 07:20:32;;;;;;;3.10;2.90;;;;;;;;;;5015355;28;20518;-72
2021/05/19 07:23:00;;;;;;;4.23;3.07;;;;;;;;;;5032257;28;20483;-74
2021/05/19 07:25:26;;;;;;;5.83;3.17;;;;;;;;;;5031630;28;20445;-72
2021/05/19 07:27:53;;;;;;;7.80;3.30;;;;;;;;;;5026754;28;20952;-72
2021/05/19 07:30:20;;;;;;;4.27;3.00;;;;;;;;;;5035912;28;20459;-66
2021/05/19 07:32:46;;;;;;;5.07;2.93;;;;;;;;;;5033042;28;20532;-67
2021/05/19 07:35:13;;;;;;;5.40;2.80;;;;;;;;;;5035447;28;20448;-66
2021/05/19 07:37:40;;;;;;;4.73;2.80;;;;;;;;;;5036137;28;20487;-67
2021/05/19 07:40:09;;;;;;;4.37;3.00;;;;;;;;;;5034418;28;20464;-66
2021/05/19 07:42:35;;;;;;;4.03;3.63;;;;;;;;;;5035781;28;21026;-67
2021/05/19 07:45:02;;;;;;;8.30;2.83;;;;;;;;;;5035541;28;20829;-67
2021/05/19 07:47:29;;;;;;;6.90;3.03;;;;;;;;;;5032524;28;20484;-67
2021/05/19 07:49:55;;;;;;;5.07;2.83;;;;;;;;;;5033363;28;20834;-67
2021/05/19 07:52:22;;;;;;;5.30;2.40;;;;;;;;;;5021557;28;20452;-68
2021/05/19 07:54:49;;;;;;;5.23;3.20;;;;;;;;;;5033010;28;20545;-68
2021/05/19 07:57:20;;;;;;;6.47;3.60;;;;;;;;;;5035235;28;20523;-68
2021/05/19 07:59:54;;;;;;;12.60;4.10;;;;;;;;;;5035020;28;20452;-67
2021/05/19 08:02:20;;;;;;;9.50;3.63;;;;;;;;;;5034717;28;20486;-70
2021/05/19 08:04:47;;;;;;;5.40;3.60;;;;;;;;;;5034465;28;20881;-69
2021/05/19 08:07:13;;;;;;;4.60;3.10;;;;;;;;;;5032483;28;20538;-66
2021/05/19 08:09:40;;;;;;;6.77;2.80;;;;;;;;;;5034340;28;20866;-66
2021/05/19 08:12:07;;;;;;;3.53;2.97;;;;;;;;;;5034989;28;20441;-65
2021/05/19 08:14:34;;;;;;;6.60;2.37;;;;;;;;;;5034888;28;20449;-66
2021/05/19 08:17:01;;;;;;;3.80;2.47;;;;;;;;;;5033546;28;20857;-66
2021/05/19 08:19:27;;;;;;;4.53;3.00;;;;;;;;;;5018462;28;20477;-66
2021/05/19 08:21:55;;;;;;;8.40;2.90;;;;;;;;;;5017939;28;21003;-65
2021/05/19 08:24:21;;;;;;;4.90;2.90;;;;;;;;;;5035069;28;20522;-66
2021/05/19 08:26:48;;;;;;;5.33;3.20;;;;;;;;;;5033863;28;20472;-66
2021/05/19 08:29:14;;;;;;;6.37;2.97;;;;;;;;;;5034227;28;20806;-65
2021/05/19 08:31:42;;;;;;;4.93;2.73;;;;;;;;;;5028222;28;20452;-65
2021/05/19 08:34:08;;;;;;;3.20;2.90;;;;;;;;;;5033922;28;20986;-65
2021/05/19 08:36:35;;;;;;;5.03;2.77;;;;;;;;;;5033736;28;20468;-72
2021/05/19 08:39:02;;;;;;;4.80;3.63;;;;;;;;;;5032276;28;20444;-66
2021/05/19 08:41:28;;;;;;;5.07;3.70;;;;;;;;;;5033853;28;20457;-67
2021/05/19 08:43:55;;;;;;;4.43;2.97;;;;;;;;;;5033918;28;21025;-67
2021/05/19 08:46:21;;;;;;;6.80;3.47;;;;;;;;;;5021378;28;20462;-68
2021/05/19 08:48:58;;;;;;;5.60;5.20;;;;;;;;;;5033852;28;20833;-65
2021/05/19 08:51:25;;;;;;;5.37;4.67;;;;;;;;;;5033246;28;20441;-65
2021/05/19 08:53:52;;;;;;;5.30;4.90;;;;;;;;;;5034070;28;20452;-65
2021/05/19 08:56:18;;;;;;;5.33;4.90;;;;;;;;;;5031843;28;20468;-65
2021/05/19 08:58:45;;;;;;;4.53;4.13;;;;;;;;;;5032694;28;20460;-65
2021/05/19 09:01:19;;;;;;;5.20;4.70;;;;;;;;;;5032653;28;20444;-65
2021/05/19 09:03:45;;;;;;;4.30;4.00;;;;;;;;;;5032903;28;20488;-65
2021/05/19 09:06:21;;;;;;;3.57;2.83;;;;;;;;;;5032850;28;20560;-65
2021/05/19 09:08:48;;;;;;;4.17;3.77;;;;;;;;;;5033889;28;20463;-65
2021/05/19 09:11:14;;;;;;;5.03;4.53;;;;;;;;;;5033030;28;20452;-65
2021/05/19 09:13:44;;;;;;;4.43;4.10;;;;;;;;;;5032931;28;20536;-65
2021/05/19 09:16:12;;;;;;;4.33;4.03;;;;;;;;;;5032679;28;20534;-65
2021/05/19 09:18:49;;;;;;;4.60;4.00;;;;;;;;;;5033885;28;20448;-65
2021/05/19 09:21:32;;;;;;;3.50;3.20;;;;;;;;;;5033140;28;21026;-66
2021/05/19 09:24:02;;;;;;;5.17;4.77;;;;;;;;;;5014887;28;20453;-65
2021/05/19 09:26:28;;;;;;;4.80;4.40;;;;;;;;;;5031355;28;20527;-64
2021/05/19 09:29:15;;;;;;;5.33;4.40;;;;;;;;;;5034184;28;20818;-64
2021/05/19 09:31:50;;;;;;;4.87;4.47;;;;;;;;;;5033496;28;20452;-65
2021/05/19 09:34:21;;;;;;;4.70;4.30;;;;;;;;;;5034049;28;20425;-64
2021/05/19 09:36:48;;;;;;;5.00;4.60;;;;;;;;;;5033130;28;21133;-64
2021/05/19 09:39:15;;;;;;;5.00;4.60;;;;;;;;;;5033626;28;20453;-64
2021/05/19 09:41:42;;;;;;;5.10;4.40;;;;;;;;;;5033403;28;20452;-64
2021/05/19 09:44:10;;;;;;;5.03;4.43;;;;;;;;;;5033501;28;20539;-64
2021/05/19 09:46:40;;;;;;;4.50;4.13;;;;;;;;;;5033782;28;20468;-64
2021/05/19 09:49:17;;;;;;;4.70;4.40;;;;;;;;;;5033716;28;20452;-64
2021/05/19 09:51:45;;;;;;;4.80;4.40;;;;;;;;;;5033350;28;20452;-64
2021/05/19 09:54:29;;;;;;;3.57;3.27;;;;;;;;;;5034034;28;20452;-64
2021/05/19 09:56:56;;;;;;;5.07;3.33;;;;;;;;;;5033249;28;20468;-64
2021/05/19 09:59:23;;;;;;;3.33;3.07;;;;;;;;;;5033835;28;20451;-65
2021/05/19 10:01:50;;;;;;;3.53;3.10;;;;;;;;;;5033718;28;20452;-64
2021/05/19 10:04:17;;;;;;;3.47;3.17;;;;;;;;;;5033785;28;20444;-65
2021/05/19 10:06:44;;;;;;;2.80;2.57;;;;;;;;;;5033074;28;20480;-65
2021/05/19 10:09:11;;;;;;;3.40;3.10;;;;;;;;;;5034262;28;20474;-65
2021/05/19 10:11:38;;;;;;;3.43;3.13;;;;;;;;;;5032963;28;20449;-65
2021/05/19 10:14:10;;;;;;;2.70;2.50;;;;;;;;;;5033014;28;20514;-64
2021/05/19 10:16:37;;;;;;;3.90;3.60;;;;;;;;;;5033301;28;20485;-65
2021/05/19 10:19:04;;;;;;;4.13;3.73;;;;;;;;;;5033416;28;20460;-64
2021/05/19 10:21:32;;;;;;;3.70;3.40;;;;;;;;;;5033427;28;20932;-64
2021/05/19 10:24:05;;;;;;;4.30;3.73;;;;;;;;;;5033786;28;20476;-64
2021/05/19 10:26:33;;;;;;;4.30;4.00;;;;;;;;;;5030729;28;20512;-64
2021/05/19 10:29:00;;;;;;;2.17;1.87;;;;;;;;;;5030790;28;20456;-64
2021/05/19 10:31:31;;;;;;;3.73;2.40;;;;;;;;;;5033409;28;20448;-65
2021/05/19 10:33:58;;;;;;;3.77;3.47;;;;;;;;;;5032889;28;20815;-65
2021/05/19 10:36:33;;;;;;;3.70;3.03;;;;;;;;;;5031721;28;20465;-65
2021/05/19 10:39:21;;;;;;;2.03;1.83;;;;;;;;;;5029210;28;20459;-65
2021/05/19 10:41:49;;;;;;;6.47;4.40;;;;;;;;;;5032798;28;20506;-65
2021/05/19 10:44:17;;;;;;;4.23;2.80;;;;;;;;;;5032949;28;20456;-65
2021/05/19 10:46:53;;;;;;;3.73;2.13;;;;;;;;;;5032395;28;20472;-65
2021/05/19 10:49:20;;;;;;;2.27;2.07;;;;;;;;;;5032059;28;20456;-65
2021/05/19 10:51:48;;;;;;;2.33;2.13;;;;;;;;;;5031587;28;20822;-65
2021/05/19 11:00:12;;;;;;;2.47;2.07;;;;;;;;;;5007257;28;20473;-65
2021/05/19 11:03:00;;;;;;;3.17;1.80;;;;;;;;;;5031160;28;20488;-65
2021/05/19 11:05:29;;;;;;;2.30;1.93;;;;;;;;;;5032485;28;20479;-64
2021/05/19 11:08:11;;;;;;;2.27;1.90;;;;;;;;;;5029950;28;20535;-65
2021/05/19 11:10:39;;;;;;;2.50;1.90;;;;;;;;;;5032392;28;20515;-65
2021/05/19 11:13:05;;;;;;;4.10;1.83;;;;;;;;;;5031462;28;20473;-65
2021/05/19 11:16:12;;;;;;;2.03;1.57;;;;;;;;;;5031965;28;20944;-65
2021/05/19 11:19:03;;;;;;;1.90;1.60;;;;;;;;;;5051763;22;20835;-65
2021/05/19 11:21:30;;;;;;;3.40;2.10;;;;;;;;;;5037871;28;20491;-64
2021/05/19 11:24:01;;;;;;;3.13;1.80;;;;;;;;;;5030922;28;20472;-65
2021/05/19 11:26:28;;;;;;;3.17;1.73;;;;;;;;;;5028085;28;20559;-65
2021/05/19 11:28:56;;;;;;;2.03;1.80;;;;;;;;;;5030470;28;20828;-64
2021/05/19 11:31:27;;;;;;;3.17;1.90;;;;;;;;;;5031247;28;20835;-65
2021/05/19 11:33:56;;;;;;;5.27;2.60;;;;;;;;;;5030686;28;20963;-65
2021/05/19 11:36:30;;;;;;;3.70;1.70;;;;;;;;;;5030072;28;20453;-64
2021/05/19 11:38:57;;;;;;;4.20;2.20;;;;;;;;;;5030460;28;20473;-64
2021/05/19 11:41:23;;;;;;;3.03;1.83;;;;;;;;;;5021224;28;20584;-65
2021/05/19 11:43:50;;;;;;;2.30;1.77;;;;;;;;;;5030702;28;20842;-64
2021/05/19 11:46:17;;;;;;;3.97;2.57;;;;;;;;;;5030462;28;20456;-64
2021/05/19 11:48:48;;;;;;;2.43;1.90;;;;;;;;;;5023008;28;20776;-64
2021/05/19 11:51:20;;;;;;;2.03;1.83;;;;;;;;;;5026881;28;20457;-64
2021/05/19 11:54:00;;;;;;;3.30;1.97;;;;;;;;;;5026504;28;20456;-64
2021/05/19 11:56:41;;;;;;;2.70;1.70;;;;;;;;;;5023642;28;20495;-64
2021/05/19 11:59:13;;;;;;;2.63;1.40;;;;;;;;;;5029956;28;20846;-64
2021/05/19 12:01:39;;;;;;;1.73;1.50;;;;;;;;;;5024022;28;20440;-64
2021/05/19 12:04:16;;;;;;;2.50;1.60;;;;;;;;;;5025300;28;21660;-66
2021/05/19 12:06:47;;;;;;;2.67;1.90;;;;;;;;;;5028501;28;20468;-64
2021/05/19 12:09:14;;;;;;;2.97;2.63;;;;;;;;;;5029084;28;20995;-63
2021/05/19 12:11:40;;;;;;;4.00;2.90;;;;;;;;;;5029346;28;20464;-64
2021/05/19 12:14:10;;;;;;;2.07;1.40;;;;;;;;;;5031200;28;20471;-64
2021/05/19 12:16:37;;;;;;;2.20;2.00;;;;;;;;;;5031554;28;20538;-64
2021/05/19 12:19:08;;;;;;;1.97;1.60;;;;;;;;;;5031346;28;20531;-63
2021/05/19 12:21:34;;;;;;;4.30;2.00;;;;;;;;;;5031153;28;20963;-64
2021/05/19 12:24:02;;;;;;;2.30;2.00;;;;;;;;;;5031032;28;20492;-64
2021/05/19 12:26:29;;;;;;;1.77;1.60;;;;;;;;;;5023783;28;20459;-64
2021/05/19 12:28:56;;;;;;;2.13;1.50;;;;;;;;;;5030151;28;20484;-63
2021/05/19 12:31:30;;;;;;;1.70;1.57;;;;;;;;;;5026998;28;20930;-64
2021/05/19 12:33:56;;;;;;;1.87;1.40;;;;;;;;;;5028224;28;20958;-61
2021/05/19 12:36:24;;;;;;;1.97;1.60;;;;;;;;;;5019791;28;20516;-61
2021/05/19 12:38:51;;;;;;;3.70;2.30;;;;;;;;;;5032650;28;20502;-64
2021/05/19 12:41:32;;;;;;;1.73;1.57;;;;;;;;;;5034541;28;20505;-62
2021/05/19 12:44:01;;;;;;;1.50;1.20;;;;;;;;;;5021295;28;20491;-61
2021/05/19 12:46:28;;;;;;;4.10;1.50;;;;;;;;;;5021680;28;21025;-63
2021/05/19 12:48:54;;;;;;;1.50;1.30;;;;;;;;;;5033034;28;20839;-61
2021/05/19 12:51:21;;;;;;;2.43;1.97;;;;;;;;;;5033506;28;20449;-62
2021/05/19 12:53:48;;;;;;;2.40;1.70;;;;;;;;;;5032824;28;20936;-64
2021/05/19 12:56:16;;;;;;;2.27;1.90;;;;;;;;;;5032755;28;20510;-64
2021/05/19 12:58:54;;;;;;;2.90;1.80;;;;;;;;;;5033460;28;20487;-64
2021/05/19 13:01:21;;;;;;;3.60;2.00;;;;;;;;;;5032213;28;20440;-64
2021/05/19 13:03:48;;;;;;;2.87;1.67;;;;;;;;;;5014022;28;20477;-64
2021/05/19 13:06:15;;;;;;;2.27;1.53;;;;;;;;;;5013812;28;20815;-63
2021/05/19 13:08:41;;;;;;;2.30;1.57;;;;;;;;;;5013584;28;20465;-66
2021/05/19 13:11:18;;;;;;;2.10;1.50;;;;;;;;;;5013488;28;20536;-64
2021/05/19 13:13:46;;;;;;;2.13;1.40;;;;;;;;;;5014073;28;20444;-64
2021/05/19 13:16:18;;;;;;;2.13;1.80;;;;;;;;;;5012677;28;20503;-64
2021/05/19 13:18:50;;;;;;;2.00;1.70;;;;;;;;;;5012352;28;21069;-64
2021/05/19 13:21:20;;;;;;;4.03;2.00;;;;;;;;;;5013219;28;20461;-64
2021/05/19 13:23:48;;;;;;;3.30;1.73;;;;;;;;;;5012241;28;20508;-64
2021/05/19 13:26:15;;;;;;;2.87;1.90;;;;;;;;;;5011936;28;20960;-64
2021/05/19 13:28:42;;;;;;;2.03;1.67;;;;;;;;;;5012568;28;21000;-64
2021/05/19 13:31:10;;;;;;;2.23;1.50;;;;;;;;;;5012704;28;20850;-64
2021/05/19 13:36:37;;;;;;;1.83;1.53;;;;;;;;;;5012224;28;20461;-63
2021/05/19 13:39:05;;;;;;;2.20;1.40;;;;;;;;;;5012674;28;20831;-62
2021/05/19 13:41:32;;;;;;;2.57;1.50;;;;;;;;;;5012272;28;20446;-64
2021/05/19 13:43:58;;;;;;;2.20;1.70;;;;;;;;;;5022965;28;20857;-65
2021/05/19 13:46:25;;;;;;;2.93;1.60;;;;;;;;;;5031348;28;20449;-64
2021/05/19 13:48:52;;;;;;;3.10;1.30;;;;;;;;;;5031735;28;20473;-64
2021/05/19 13:51:18;;;;;;;1.50;1.23;;;;;;;;;;5031455;28;20831;-64
2021/05/19 13:53:46;;;;;;;1.83;1.37;;;;;;;;;;5031680;28;20444;-64
2021/05/19 13:56:13;;;;;;;2.43;1.67;;;;;;;;;;5031497;28;20946;-64
2021/05/19 13:58:44;;;;;;;3.50;2.40;;;;;;;;;;5031400;28;20468;-65
2021/05/19 14:01:10;;;;;;;2.00;1.70;;;;;;;;;;5031009;28;20844;-65
2021/05/19 14:03:37;;;;;;;2.00;1.50;;;;;;;;;;5030808;28;20485;-64
2021/05/19 14:06:04;;;;;;;1.90;1.53;;;;;;;;;;5031094;28;20492;-65
2021/05/19 14:08:33;;;;;;;2.20;1.40;;;;;;;;;;5031344;28;20510;-65
2021/05/19 14:11:04;;;;;;;1.93;1.70;;;;;;;;;;5031210;28;20457;-64
2021/05/19 14:13:35;;;;;;;2.47;1.70;;;;;;;;;;5031212;28;21133;-64
2021/05/19 14:16:09;;;;;;;2.23;1.73;;;;;;;;;;5030185;28;20901;-64
2021/05/19 14:18:49;;;;;;;2.30;1.37;;;;;;;;;;5031266;28;20849;-64
2021/05/19 14:27:07;;;;;;;2.07;1.57;;;;;;;;;;4969737;28;20902;-64
2021/05/19 14:29:33;;;;;;;1.70;1.60;;;;;;;;;;5018363;28;21045;-65
2021/05/19 14:32:00;;;;;;;3.83;2.30;;;;;;;;;;5029089;28;20444;-65
2021/05/19 14:34:29;;;;;;;5.10;2.10;;;;;;;;;;5028400;28;20460;-64
2021/05/19 14:59:18;;;;;;;5.80;3.00;;;;;;;;;;5030898;28;20440;-64
2021/05/19 15:01:45;;;;;;;3.70;2.63;;;;;;;;;;5030165;28;20578;-64
2021/05/19 15:04:12;;;;;;;3.97;3.30;;;;;;;;;;5030357;28;21047;-64
2021/05/19 15:06:38;;;;;;;3.27;3.07;;;;;;;;;;5025569;28;20461;-64
2021/05/19 15:09:09;;;;;;;3.83;3.53;;;;;;;;;;5023401;28;20485;-64
2021/05/19 15:11:36;;;;;;;3.87;3.57;;;;;;;;;;5021841;28;21046;-64
2021/05/19 15:14:03;;;;;;;4.50;4.20;;;;;;;;;;5030997;28;21100;-65
2021/05/19 15:16:31;;;;;;;3.47;3.27;;;;;;;;;;5030288;28;20492;-65